sensor_id;sensor_type;location;lat;lon;timestamp;P1;durP1;ratioP1;P2;durP2;ratioP2
35540;SDS011;21650;48.840;9.162;2022-12-29T00:01:39;4.40;;;1.90;;
35540;SDS011;21650;48.840;9.162;2022-12-29T00:04:05;3.40;;;1.60;;
35540;SDS011;21650;48.840;9.162;2022-12-29T00:06:31;3.90;;;1.57;;
35540;SDS011;21650;48.840;9.162;2022-12-29T00:08:57;2.30;;;1.40;;
35540;SDS011;21650;48.840;9.162;2022-12-29T00:11:24;2.90;;;2.40;;
35540;SDS011;21650;48.840;9.162;2022-12-29T00:13:51;2.17;;;1.37;;
35540;SDS011;21650;48.840;9.162;2022-12-29T00:16:36;3.07;;;1.97;;
35540;SDS011;21650;48.840;9.162;2022-12-29T00:19:03;3.63;;;1.60;;
35540;SDS011;21650;48.840;9.162;2022-12-29T00:21:30;1.90;;;1.63;;
35540;SDS011;21650;48.840;9.162;2022-12-29T00:24:15;5.13;;;1.77;;
35540;SDS011;21650;48.840;9.162;2022-12-29T00:29:50;2.33;;;1.60;;
35540;SDS011;21650;48.840;9.162;2022-12-29T00:32:35;4.03;;;1.90;;
35540;SDS011;21650;48.840;9.162;2022-12-29T00:35:22;2.50;;;1.63;;
35540;SDS011;21650;48.840;9.162;2022-12-29T00:37:48;2.50;;;1.50;;
35540;SDS011;21650;48.840;9.162;2022-12-29T00:40:33;2.23;;;1.20;;
35540;SDS011;21650;48.840;9.162;2022-12-29T00:43:17;3.13;;;1.60;;
35540;SDS011;21650;48.840;9.162;2022-12-29T00:46:01;4.50;;;1.90;;
35540;SDS011;21650;48.840;9.162;2022-12-29T00:48:27;3.00;;;1.60;;
35540;SDS011;21650;48.840;9.162;2022-12-29T00:51:10;2.97;;;1.70;;
35540;SDS011;21650;48.840;9.162;2022-12-29T00:53:36;4.67;;;1.60;;
35540;SDS011;21650;48.840;9.162;2022-12-29T00:56:02;2.73;;;1.40;;
35540;SDS011;21650;48.840;9.162;2022-12-29T00:58:28;2.57;;;1.30;;
35540;SDS011;21650;48.840;9.162;2022-12-29T01:01:00;3.97;;;1.30;;
35540;SDS011;21650;48.840;9.162;2022-12-29T01:03:27;3.13;;;1.37;;
35540;SDS011;21650;48.840;9.162;2022-12-29T01:05:52;2.87;;;1.50;;
35540;SDS011;21650;48.840;9.162;2022-12-29T01:08:18;5.03;;;1.53;;
35540;SDS011;21650;48.840;9.162;2022-12-29T01:10:43;2.30;;;1.40;;
35540;SDS011;21650;48.840;9.162;2022-12-29T01:13:09;1.73;;;1.37;;
35540;SDS011;21650;48.840;9.162;2022-12-29T01:15:34;2.73;;;1.43;;
35540;SDS011;21650;48.840;9.162;2022-12-29T01:18:00;2.13;;;1.33;;
35540;SDS011;21650;48.840;9.162;2022-12-29T01:20:26;1.83;;;1.40;;
35540;SDS011;21650;48.840;9.162;2022-12-29T01:22:53;4.07;;;1.77;;
35540;SDS011;21650;48.840;9.162;2022-12-29T01:25:19;3.03;;;1.50;;
35540;SDS011;21650;48.840;9.162;2022-12-29T01:27:45;3.30;;;1.27;;
35540;SDS011;21650;48.840;9.162;2022-12-29T01:30:11;2.57;;;1.37;;
35540;SDS011;21650;48.840;9.162;2022-12-29T01:32:36;1.53;;;1.43;;
35540;SDS011;21650;48.840;9.162;2022-12-29T01:35:02;2.37;;;1.60;;
35540;SDS011;21650;48.840;9.162;2022-12-29T01:37:28;2.63;;;1.60;;
35540;SDS011;21650;48.840;9.162;2022-12-29T01:39:54;2.87;;;1.30;;
35540;SDS011;21650;48.840;9.162;2022-12-29T01:42:22;1.83;;;1.40;;
35540;SDS011;21650;48.840;9.162;2022-12-29T01:44:52;2.60;;;1.23;;
35540;SDS011;21650;48.840;9.162;2022-12-29T01:50:10;1.90;;;1.27;;
35540;SDS011;21650;48.840;9.162;2022-12-29T01:52:42;2.37;;;1.70;;
35540;SDS011;21650;48.840;9.162;2022-12-29T01:55:12;1.40;;;0.90;;
35540;SDS011;21650;48.840;9.162;2022-12-29T01:57:40;3.37;;;2.07;;
35540;SDS011;21650;48.840;9.162;2022-12-29T02:00:09;2.03;;;1.33;;
35540;SDS011;21650;48.840;9.162;2022-12-29T02:02:38;1.50;;;1.40;;
35540;SDS011;21650;48.840;9.162;2022-12-29T02:05:10;2.43;;;1.33;;
35540;SDS011;21650;48.840;9.162;2022-12-29T02:07:43;2.83;;;1.40;;
35540;SDS011;21650;48.840;9.162;2022-12-29T02:10:10;2.43;;;1.50;;
35540;SDS011;21650;48.840;9.162;2022-12-29T02:12:35;3.17;;;1.30;;
35540;SDS011;21650;48.840;9.162;2022-12-29T02:15:02;2.93;;;1.13;;
35540;SDS011;21650;48.840;9.162;2022-12-29T02:26:19;2.53;;;1.40;;
35540;SDS011;21650;48.840;9.162;2022-12-29T02:37:24;4.20;;;1.40;;
35540;SDS011;21650;48.840;9.162;2022-12-29T02:42:51;2.23;;;1.43;;
35540;SDS011;21650;48.840;9.162;2022-12-29T02:48:18;3.13;;;1.50;;
35540;SDS011;21650;48.840;9.162;2022-12-29T02:51:16;2.13;;;1.43;;
35540;SDS011;21650;48.840;9.162;2022-12-29T02:53:46;1.97;;;1.50;;
35540;SDS011;21650;48.840;9.162;2022-12-29T02:56:30;2.73;;;1.50;;
35540;SDS011;21650;48.840;9.162;2022-12-29T02:58:56;4.43;;;1.60;;
35540;SDS011;21650;48.840;9.162;2022-12-29T03:12:30;3.53;;;1.40;;
35540;SDS011;21650;48.840;9.162;2022-12-29T03:15:35;2.53;;;1.30;;
35540;SDS011;21650;48.840;9.162;2022-12-29T03:18:35;3.33;;;1.43;;
35540;SDS011;21650;48.840;9.162;2022-12-29T03:21:33;3.93;;;1.10;;
35540;SDS011;21650;48.840;9.162;2022-12-29T03:24:23;3.23;;;1.47;;
35540;SDS011;21650;48.840;9.162;2022-12-29T03:26:54;5.57;;;1.43;;
35540;SDS011;21650;48.840;9.162;2022-12-29T03:29:23;5.50;;;1.30;;
35540;SDS011;21650;48.840;9.162;2022-12-29T03:31:51;2.50;;;1.10;;
35540;SDS011;21650;48.840;9.162;2022-12-29T03:34:18;4.30;;;1.40;;
35540;SDS011;21650;48.840;9.162;2022-12-29T03:36:48;3.23;;;1.00;;
35540;SDS011;21650;48.840;9.162;2022-12-29T03:39:24;4.93;;;1.17;;
35540;SDS011;21650;48.840;9.162;2022-12-29T03:41:54;1.40;;;1.10;;
35540;SDS011;21650;48.840;9.162;2022-12-29T03:44:37;2.27;;;1.10;;
35540;SDS011;21650;48.840;9.162;2022-12-29T03:47:06;2.90;;;0.90;;
35540;SDS011;21650;48.840;9.162;2022-12-29T03:49:33;0.97;;;0.83;;
35540;SDS011;21650;48.840;9.162;2022-12-29T03:51:59;1.23;;;1.00;;
35540;SDS011;21650;48.840;9.162;2022-12-29T03:54:24;1.40;;;0.77;;
35540;SDS011;21650;48.840;9.162;2022-12-29T03:56:50;1.87;;;1.43;;
35540;SDS011;21650;48.840;9.162;2022-12-29T03:59:15;6.50;;;1.33;;
35540;SDS011;21650;48.840;9.162;2022-12-29T04:01:41;1.17;;;0.80;;
35540;SDS011;21650;48.840;9.162;2022-12-29T04:04:07;1.13;;;0.90;;
35540;SDS011;21650;48.840;9.162;2022-12-29T04:06:33;1.30;;;1.07;;
35540;SDS011;21650;48.840;9.162;2022-12-29T04:08:58;2.23;;;0.87;;
35540;SDS011;21650;48.840;9.162;2022-12-29T04:11:24;3.17;;;1.00;;
35540;SDS011;21650;48.840;9.162;2022-12-29T04:13:50;2.97;;;0.77;;
35540;SDS011;21650;48.840;9.162;2022-12-29T04:16:15;2.97;;;1.10;;
35540;SDS011;21650;48.840;9.162;2022-12-29T04:18:41;1.40;;;0.90;;
35540;SDS011;21650;48.840;9.162;2022-12-29T04:21:06;1.53;;;0.80;;
35540;SDS011;21650;48.840;9.162;2022-12-29T04:23:33;2.77;;;1.10;;
35540;SDS011;21650;48.840;9.162;2022-12-29T04:26:01;2.57;;;1.00;;
35540;SDS011;21650;48.840;9.162;2022-12-29T04:28:28;3.27;;;1.60;;
35540;SDS011;21650;48.840;9.162;2022-12-29T04:30:54;1.80;;;1.17;;
35540;SDS011;21650;48.840;9.162;2022-12-29T04:33:20;3.00;;;1.10;;
35540;SDS011;21650;48.840;9.162;2022-12-29T04:35:46;3.23;;;1.20;;
35540;SDS011;21650;48.840;9.162;2022-12-29T04:38:12;1.03;;;0.60;;
35540;SDS011;21650;48.840;9.162;2022-12-29T04:40:39;2.60;;;1.43;;
35540;SDS011;21650;48.840;9.162;2022-12-29T04:43:06;2.07;;;1.00;;
35540;SDS011;21650;48.840;9.162;2022-12-29T04:45:32;2.30;;;1.10;;
35540;SDS011;21650;48.840;9.162;2022-12-29T04:47:57;1.87;;;1.00;;
35540;SDS011;21650;48.840;9.162;2022-12-29T04:50:23;1.50;;;1.20;;
35540;SDS011;21650;48.840;9.162;2022-12-29T04:52:48;1.77;;;1.30;;
35540;SDS011;21650;48.840;9.162;2022-12-29T04:55:14;1.70;;;1.10;;
35540;SDS011;21650;48.840;9.162;2022-12-29T04:57:40;4.47;;;1.10;;
35540;SDS011;21650;48.840;9.162;2022-12-29T05:00:05;2.20;;;1.10;;
35540;SDS011;21650;48.840;9.162;2022-12-29T05:02:31;1.47;;;0.97;;
35540;SDS011;21650;48.840;9.162;2022-12-29T05:04:57;2.27;;;0.90;;
35540;SDS011;21650;48.840;9.162;2022-12-29T05:07:22;2.20;;;1.07;;
35540;SDS011;21650;48.840;9.162;2022-12-29T05:09:48;2.03;;;1.40;;
35540;SDS011;21650;48.840;9.162;2022-12-29T05:12:14;3.60;;;1.13;;
35540;SDS011;21650;48.840;9.162;2022-12-29T05:14:39;2.17;;;1.30;;
35540;SDS011;21650;48.840;9.162;2022-12-29T05:17:05;2.10;;;1.90;;
35540;SDS011;21650;48.840;9.162;2022-12-29T05:19:30;4.00;;;1.33;;
35540;SDS011;21650;48.840;9.162;2022-12-29T05:21:56;3.13;;;1.10;;
35540;SDS011;21650;48.840;9.162;2022-12-29T05:24:21;2.97;;;1.57;;
35540;SDS011;21650;48.840;9.162;2022-12-29T05:26:47;3.27;;;1.60;;
35540;SDS011;21650;48.840;9.162;2022-12-29T05:29:13;2.70;;;2.17;;
35540;SDS011;21650;48.840;9.162;2022-12-29T05:31:38;3.10;;;1.80;;
35540;SDS011;21650;48.840;9.162;2022-12-29T05:34:04;3.20;;;1.40;;
35540;SDS011;21650;48.840;9.162;2022-12-29T05:36:29;1.47;;;1.10;;
35540;SDS011;21650;48.840;9.162;2022-12-29T05:38:55;1.90;;;1.70;;
35540;SDS011;21650;48.840;9.162;2022-12-29T05:41:20;1.83;;;0.90;;
35540;SDS011;21650;48.840;9.162;2022-12-29T05:43:46;4.80;;;1.47;;
35540;SDS011;21650;48.840;9.162;2022-12-29T05:46:12;1.73;;;1.17;;
35540;SDS011;21650;48.840;9.162;2022-12-29T05:48:37;2.43;;;1.20;;
35540;SDS011;21650;48.840;9.162;2022-12-29T05:51:03;5.60;;;1.67;;
35540;SDS011;21650;48.840;9.162;2022-12-29T05:53:29;3.83;;;1.43;;
35540;SDS011;21650;48.840;9.162;2022-12-29T05:55:54;1.97;;;1.30;;
35540;SDS011;21650;48.840;9.162;2022-12-29T05:58:20;1.90;;;1.30;;
35540;SDS011;21650;48.840;9.162;2022-12-29T06:00:46;2.50;;;1.27;;
35540;SDS011;21650;48.840;9.162;2022-12-29T06:03:11;6.13;;;1.27;;
35540;SDS011;21650;48.840;9.162;2022-12-29T06:05:37;2.13;;;1.37;;
35540;SDS011;21650;48.840;9.162;2022-12-29T06:08:02;2.73;;;1.20;;
35540;SDS011;21650;48.840;9.162;2022-12-29T06:10:28;1.87;;;1.23;;
35540;SDS011;21650;48.840;9.162;2022-12-29T06:12:54;2.50;;;1.60;;
35540;SDS011;21650;48.840;9.162;2022-12-29T06:15:19;2.53;;;1.30;;
35540;SDS011;21650;48.840;9.162;2022-12-29T06:17:45;2.00;;;1.10;;
35540;SDS011;21650;48.840;9.162;2022-12-29T06:20:11;2.37;;;1.20;;
35540;SDS011;21650;48.840;9.162;2022-12-29T06:22:36;2.93;;;1.20;;
35540;SDS011;21650;48.840;9.162;2022-12-29T06:25:03;4.60;;;1.30;;
35540;SDS011;21650;48.840;9.162;2022-12-29T06:27:30;1.70;;;1.53;;
35540;SDS011;21650;48.840;9.162;2022-12-29T06:29:56;3.90;;;1.67;;
35540;SDS011;21650;48.840;9.162;2022-12-29T06:32:22;3.20;;;1.20;;
35540;SDS011;21650;48.840;9.162;2022-12-29T06:34:48;1.77;;;1.40;;
35540;SDS011;21650;48.840;9.162;2022-12-29T06:37:13;2.23;;;1.33;;
35540;SDS011;21650;48.840;9.162;2022-12-29T06:39:39;2.43;;;1.23;;
35540;SDS011;21650;48.840;9.162;2022-12-29T06:42:05;1.80;;;1.30;;
35540;SDS011;21650;48.840;9.162;2022-12-29T06:44:31;3.97;;;1.90;;
35540;SDS011;21650;48.840;9.162;2022-12-29T06:46:56;3.50;;;1.53;;
35540;SDS011;21650;48.840;9.162;2022-12-29T06:49:22;1.67;;;1.30;;
35540;SDS011;21650;48.840;9.162;2022-12-29T06:51:48;2.53;;;1.10;;
35540;SDS011;21650;48.840;9.162;2022-12-29T06:54:14;1.90;;;1.40;;
35540;SDS011;21650;48.840;9.162;2022-12-29T06:56:40;3.47;;;1.30;;
35540;SDS011;21650;48.840;9.162;2022-12-29T06:59:05;2.07;;;1.33;;
35540;SDS011;21650;48.840;9.162;2022-12-29T07:01:31;4.07;;;1.50;;
35540;SDS011;21650;48.840;9.162;2022-12-29T07:03:57;4.53;;;1.30;;
35540;SDS011;21650;48.840;9.162;2022-12-29T07:06:22;2.10;;;1.13;;
35540;SDS011;21650;48.840;9.162;2022-12-29T07:08:48;2.00;;;1.40;;
35540;SDS011;21650;48.840;9.162;2022-12-29T07:11:14;2.07;;;1.40;;
35540;SDS011;21650;48.840;9.162;2022-12-29T07:13:39;2.67;;;1.17;;
35540;SDS011;21650;48.840;9.162;2022-12-29T07:16:06;2.20;;;1.70;;
35540;SDS011;21650;48.840;9.162;2022-12-29T07:18:32;1.83;;;1.10;;
35540;SDS011;21650;48.840;9.162;2022-12-29T07:20:58;3.00;;;1.17;;
35540;SDS011;21650;48.840;9.162;2022-12-29T07:23:23;3.10;;;1.83;;
35540;SDS011;21650;48.840;9.162;2022-12-29T07:25:49;5.43;;;1.63;;
35540;SDS011;21650;48.840;9.162;2022-12-29T07:28:14;2.50;;;1.57;;
35540;SDS011;21650;48.840;9.162;2022-12-29T07:30:40;3.50;;;1.57;;
35540;SDS011;21650;48.840;9.162;2022-12-29T07:33:06;1.73;;;1.10;;
35540;SDS011;21650;48.840;9.162;2022-12-29T07:35:33;4.27;;;1.57;;
35540;SDS011;21650;48.840;9.162;2022-12-29T07:37:59;3.97;;;1.50;;
35540;SDS011;21650;48.840;9.162;2022-12-29T07:40:24;3.67;;;1.73;;
35540;SDS011;21650;48.840;9.162;2022-12-29T07:42:50;1.97;;;1.30;;
35540;SDS011;21650;48.840;9.162;2022-12-29T07:45:16;5.90;;;1.97;;
35540;SDS011;21650;48.840;9.162;2022-12-29T07:47:41;3.97;;;1.20;;
35540;SDS011;21650;48.840;9.162;2022-12-29T07:50:07;3.50;;;1.20;;
35540;SDS011;21650;48.840;9.162;2022-12-29T07:52:33;1.30;;;1.20;;
35540;SDS011;21650;48.840;9.162;2022-12-29T07:54:58;6.07;;;1.77;;
35540;SDS011;21650;48.840;9.162;2022-12-29T07:57:24;5.27;;;1.80;;
35540;SDS011;21650;48.840;9.162;2022-12-29T07:59:49;7.53;;;2.07;;
35540;SDS011;21650;48.840;9.162;2022-12-29T08:02:15;2.03;;;1.27;;
35540;SDS011;21650;48.840;9.162;2022-12-29T08:04:40;2.70;;;1.23;;
35540;SDS011;21650;48.840;9.162;2022-12-29T08:07:06;3.70;;;1.60;;
35540;SDS011;21650;48.840;9.162;2022-12-29T08:09:31;4.37;;;2.20;;
35540;SDS011;21650;48.840;9.162;2022-12-29T08:11:57;1.80;;;1.47;;
35540;SDS011;21650;48.840;9.162;2022-12-29T08:14:23;2.70;;;2.07;;
35540;SDS011;21650;48.840;9.162;2022-12-29T08:16:48;2.60;;;1.30;;
35540;SDS011;21650;48.840;9.162;2022-12-29T08:19:14;1.97;;;1.47;;
35540;SDS011;21650;48.840;9.162;2022-12-29T08:21:39;4.33;;;1.40;;
35540;SDS011;21650;48.840;9.162;2022-12-29T08:24:05;3.03;;;1.70;;
35540;SDS011;21650;48.840;9.162;2022-12-29T08:26:32;4.00;;;1.57;;
35540;SDS011;21650;48.840;9.162;2022-12-29T08:28:58;3.07;;;1.83;;
35540;SDS011;21650;48.840;9.162;2022-12-29T08:31:23;6.07;;;1.83;;
35540;SDS011;21650;48.840;9.162;2022-12-29T08:33:49;3.63;;;2.40;;
35540;SDS011;21650;48.840;9.162;2022-12-29T08:36:15;2.80;;;1.80;;
35540;SDS011;21650;48.840;9.162;2022-12-29T08:38:41;2.93;;;1.83;;
35540;SDS011;21650;48.840;9.162;2022-12-29T08:41:07;3.20;;;2.13;;
35540;SDS011;21650;48.840;9.162;2022-12-29T08:43:32;3.40;;;2.10;;
35540;SDS011;21650;48.840;9.162;2022-12-29T08:45:58;4.90;;;2.43;;
35540;SDS011;21650;48.840;9.162;2022-12-29T08:48:24;3.73;;;2.70;;
35540;SDS011;21650;48.840;9.162;2022-12-29T08:50:51;3.57;;;2.53;;
35540;SDS011;21650;48.840;9.162;2022-12-29T08:53:17;5.23;;;2.73;;
35540;SDS011;21650;48.840;9.162;2022-12-29T08:55:44;3.50;;;2.47;;
35540;SDS011;21650;48.840;9.162;2022-12-29T08:58:11;5.03;;;2.23;;
35540;SDS011;21650;48.840;9.162;2022-12-29T09:00:39;5.53;;;2.70;;
35540;SDS011;21650;48.840;9.162;2022-12-29T09:03:07;3.83;;;2.50;;
35540;SDS011;21650;48.840;9.162;2022-12-29T09:05:32;3.43;;;1.87;;
35540;SDS011;21650;48.840;9.162;2022-12-29T09:07:58;3.70;;;2.30;;
35540;SDS011;21650;48.840;9.162;2022-12-29T09:10:23;3.43;;;2.20;;
35540;SDS011;21650;48.840;9.162;2022-12-29T09:12:49;4.60;;;2.80;;
35540;SDS011;21650;48.840;9.162;2022-12-29T09:15:14;4.90;;;2.03;;
35540;SDS011;21650;48.840;9.162;2022-12-29T09:17:40;4.47;;;2.00;;
35540;SDS011;21650;48.840;9.162;2022-12-29T09:20:10;3.50;;;1.53;;
35540;SDS011;21650;48.840;9.162;2022-12-29T09:22:37;6.37;;;1.70;;
35540;SDS011;21650;48.840;9.162;2022-12-29T09:25:03;1.43;;;1.23;;
35540;SDS011;21650;48.840;9.162;2022-12-29T09:27:29;2.90;;;1.30;;
35540;SDS011;21650;48.840;9.162;2022-12-29T09:29:55;2.20;;;1.60;;
35540;SDS011;21650;48.840;9.162;2022-12-29T09:32:21;2.67;;;1.50;;
35540;SDS011;21650;48.840;9.162;2022-12-29T09:34:47;4.03;;;1.33;;
35540;SDS011;21650;48.840;9.162;2022-12-29T09:37:12;3.50;;;1.50;;
35540;SDS011;21650;48.840;9.162;2022-12-29T09:39:38;2.57;;;1.53;;
35540;SDS011;21650;48.840;9.162;2022-12-29T09:42:14;3.47;;;2.00;;
35540;SDS011;21650;48.840;9.162;2022-12-29T09:45:11;5.50;;;1.67;;
35540;SDS011;21650;48.840;9.162;2022-12-29T09:47:42;5.20;;;1.63;;
35540;SDS011;21650;48.840;9.162;2022-12-29T09:53:00;2.43;;;1.30;;
35540;SDS011;21650;48.840;9.162;2022-12-29T09:55:33;3.40;;;1.33;;
35540;SDS011;21650;48.840;9.162;2022-12-29T09:58:04;2.20;;;0.90;;
35540;SDS011;21650;48.840;9.162;2022-12-29T10:00:36;2.27;;;1.30;;
35540;SDS011;21650;48.840;9.162;2022-12-29T10:03:17;3.53;;;1.20;;
35540;SDS011;21650;48.840;9.162;2022-12-29T10:17:20;1.33;;;1.10;;
35540;SDS011;21650;48.840;9.162;2022-12-29T10:25:18;1.80;;;1.30;;
35540;SDS011;21650;48.840;9.162;2022-12-29T10:27:47;3.70;;;1.43;;
35540;SDS011;21650;48.840;9.162;2022-12-29T10:30:14;1.40;;;1.00;;
35540;SDS011;21650;48.840;9.162;2022-12-29T10:32:54;1.50;;;1.30;;
35540;SDS011;21650;48.840;9.162;2022-12-29T10:35:24;4.73;;;2.27;;
35540;SDS011;21650;48.840;9.162;2022-12-29T10:40:42;3.13;;;1.43;;
35540;SDS011;21650;48.840;9.162;2022-12-29T10:43:27;2.97;;;1.30;;
35540;SDS011;21650;48.840;9.162;2022-12-29T10:45:56;6.07;;;1.30;;
35540;SDS011;21650;48.840;9.162;2022-12-29T10:48:33;2.03;;;1.00;;
35540;SDS011;21650;48.840;9.162;2022-12-29T10:51:01;1.50;;;1.07;;
35540;SDS011;21650;48.840;9.162;2022-12-29T10:54:03;2.60;;;1.17;;
35540;SDS011;21650;48.840;9.162;2022-12-29T10:56:32;4.57;;;1.13;;
35540;SDS011;21650;48.840;9.162;2022-12-29T10:59:19;2.87;;;1.27;;
35540;SDS011;21650;48.840;9.162;2022-12-29T11:01:58;2.63;;;1.10;;
35540;SDS011;21650;48.840;9.162;2022-12-29T11:04:45;1.30;;;1.10;;
35540;SDS011;21650;48.840;9.162;2022-12-29T11:07:20;3.17;;;1.00;;
35540;SDS011;21650;48.840;9.162;2022-12-29T11:09:47;4.00;;;1.30;;
35540;SDS011;21650;48.840;9.162;2022-12-29T11:12:24;2.20;;;1.13;;
35540;SDS011;21650;48.840;9.162;2022-12-29T11:15:00;2.77;;;1.20;;
35540;SDS011;21650;48.840;9.162;2022-12-29T11:17:42;1.53;;;1.13;;
35540;SDS011;21650;48.840;9.162;2022-12-29T11:22:55;3.17;;;1.07;;
35540;SDS011;21650;48.840;9.162;2022-12-29T11:25:21;4.13;;;1.27;;
35540;SDS011;21650;48.840;9.162;2022-12-29T11:28:00;2.57;;;1.07;;
35540;SDS011;21650;48.840;9.162;2022-12-29T11:30:28;1.20;;;0.90;;
35540;SDS011;21650;48.840;9.162;2022-12-29T11:32:56;2.67;;;1.00;;
35540;SDS011;21650;48.840;9.162;2022-12-29T11:35:30;1.87;;;1.13;;
35540;SDS011;21650;48.840;9.162;2022-12-29T11:37:57;3.27;;;1.17;;
35540;SDS011;21650;48.840;9.162;2022-12-29T11:40:24;2.23;;;0.87;;
35540;SDS011;21650;48.840;9.162;2022-12-29T11:42:51;2.00;;;1.10;;
35540;SDS011;21650;48.840;9.162;2022-12-29T11:45:22;1.47;;;0.90;;
35540;SDS011;21650;48.840;9.162;2022-12-29T11:50:34;0.93;;;0.80;;
35540;SDS011;21650;48.840;9.162;2022-12-29T11:53:25;2.87;;;0.70;;
35540;SDS011;21650;48.840;9.162;2022-12-29T11:56:10;3.07;;;0.60;;
35540;SDS011;21650;48.840;9.162;2022-12-29T11:58:39;2.73;;;0.70;;
35540;SDS011;21650;48.840;9.162;2022-12-29T12:01:23;3.33;;;0.60;;
35540;SDS011;21650;48.840;9.162;2022-12-29T12:04:10;1.10;;;0.80;;
35540;SDS011;21650;48.840;9.162;2022-12-29T12:06:46;1.23;;;1.00;;
35540;SDS011;21650;48.840;9.162;2022-12-29T12:09:35;1.50;;;1.07;;
35540;SDS011;21650;48.840;9.162;2022-12-29T12:12:08;1.97;;;1.33;;
35540;SDS011;21650;48.840;9.162;2022-12-29T12:14:53;1.10;;;1.00;;
35540;SDS011;21650;48.840;9.162;2022-12-29T12:28:28;2.90;;;1.77;;
35540;SDS011;21650;48.840;9.162;2022-12-29T12:34:01;1.93;;;1.40;;
35540;SDS011;21650;48.840;9.162;2022-12-29T12:36:43;1.70;;;1.27;;
35540;SDS011;21650;48.840;9.162;2022-12-29T12:45:27;3.67;;;1.20;;
35540;SDS011;21650;48.840;9.162;2022-12-29T12:57:17;3.33;;;1.20;;
35540;SDS011;21650;48.840;9.162;2022-12-29T13:00:04;3.90;;;1.50;;
35540;SDS011;21650;48.840;9.162;2022-12-29T13:05:29;3.47;;;1.27;;
35540;SDS011;21650;48.840;9.162;2022-12-29T13:11:21;3.33;;;1.27;;
35540;SDS011;21650;48.840;9.162;2022-12-29T13:14:13;2.27;;;1.30;;
35540;SDS011;21650;48.840;9.162;2022-12-29T13:16:43;3.80;;;1.37;;
35540;SDS011;21650;48.840;9.162;2022-12-29T13:22:12;1.40;;;1.03;;
35540;SDS011;21650;48.840;9.162;2022-12-29T13:30:19;2.07;;;1.40;;
35540;SDS011;21650;48.840;9.162;2022-12-29T13:38:12;2.90;;;1.57;;
35540;SDS011;21650;48.840;9.162;2022-12-29T13:40:59;3.63;;;1.30;;
35540;SDS011;21650;48.840;9.162;2022-12-29T13:43:31;3.67;;;1.20;;
35540;SDS011;21650;48.840;9.162;2022-12-29T13:46:00;2.83;;;1.03;;
35540;SDS011;21650;48.840;9.162;2022-12-29T13:48:51;3.07;;;1.20;;
35540;SDS011;21650;48.840;9.162;2022-12-29T13:51:23;3.97;;;2.03;;
35540;SDS011;21650;48.840;9.162;2022-12-29T13:54:00;3.13;;;1.60;;
35540;SDS011;21650;48.840;9.162;2022-12-29T13:56:40;4.70;;;1.10;;
35540;SDS011;21650;48.840;9.162;2022-12-29T14:05:00;2.67;;;1.07;;
35540;SDS011;21650;48.840;9.162;2022-12-29T14:07:29;4.27;;;1.60;;
35540;SDS011;21650;48.840;9.162;2022-12-29T14:10:02;1.47;;;1.10;;
35540;SDS011;21650;48.840;9.162;2022-12-29T14:17:36;3.63;;;1.53;;
35540;SDS011;21650;48.840;9.162;2022-12-29T14:20:05;2.57;;;1.10;;
35540;SDS011;21650;48.840;9.162;2022-12-29T14:22:54;2.00;;;1.17;;
35540;SDS011;21650;48.840;9.162;2022-12-29T14:28:32;2.47;;;1.40;;
35540;SDS011;21650;48.840;9.162;2022-12-29T14:31:00;3.10;;;1.40;;
35540;SDS011;21650;48.840;9.162;2022-12-29T14:33:28;1.97;;;1.20;;
35540;SDS011;21650;48.840;9.162;2022-12-29T14:35:55;3.80;;;1.47;;
35540;SDS011;21650;48.840;9.162;2022-12-29T14:38:22;4.67;;;1.30;;
35540;SDS011;21650;48.840;9.162;2022-12-29T14:40:51;2.87;;;1.30;;
35540;SDS011;21650;48.840;9.162;2022-12-29T14:43:22;2.53;;;1.47;;
35540;SDS011;21650;48.840;9.162;2022-12-29T14:45:54;2.73;;;1.37;;
35540;SDS011;21650;48.840;9.162;2022-12-29T14:48:39;1.43;;;1.30;;
35540;SDS011;21650;48.840;9.162;2022-12-29T14:51:18;4.53;;;1.57;;
35540;SDS011;21650;48.840;9.162;2022-12-29T14:53:54;1.17;;;1.03;;
35540;SDS011;21650;48.840;9.162;2022-12-29T14:56:20;2.30;;;1.27;;
35540;SDS011;21650;48.840;9.162;2022-12-29T14:58:54;2.90;;;1.47;;
35540;SDS011;21650;48.840;9.162;2022-12-29T15:01:25;2.03;;;1.50;;
35540;SDS011;21650;48.840;9.162;2022-12-29T15:03:58;1.67;;;1.20;;
35540;SDS011;21650;48.840;9.162;2022-12-29T15:06:29;2.70;;;1.30;;
35540;SDS011;21650;48.840;9.162;2022-12-29T15:09:06;2.90;;;1.40;;
35540;SDS011;21650;48.840;9.162;2022-12-29T15:11:48;2.60;;;1.37;;
35540;SDS011;21650;48.840;9.162;2022-12-29T15:17:10;2.33;;;1.40;;
35540;SDS011;21650;48.840;9.162;2022-12-29T15:19:57;3.77;;;1.37;;
35540;SDS011;21650;48.840;9.162;2022-12-29T15:22:25;3.40;;;1.60;;
35540;SDS011;21650;48.840;9.162;2022-12-29T15:24:51;3.33;;;1.33;;
35540;SDS011;21650;48.840;9.162;2022-12-29T15:27:22;3.17;;;1.77;;
35540;SDS011;21650;48.840;9.162;2022-12-29T15:29:56;4.00;;;1.40;;
35540;SDS011;21650;48.840;9.162;2022-12-29T15:32:27;2.53;;;1.40;;
35540;SDS011;21650;48.840;9.162;2022-12-29T15:34:55;3.37;;;1.40;;
35540;SDS011;21650;48.840;9.162;2022-12-29T15:37:26;5.10;;;2.00;;
35540;SDS011;21650;48.840;9.162;2022-12-29T15:39:54;4.47;;;1.90;;
35540;SDS011;21650;48.840;9.162;2022-12-29T15:42:34;1.50;;;1.00;;
35540;SDS011;21650;48.840;9.162;2022-12-29T15:45:11;3.73;;;1.33;;
35540;SDS011;21650;48.840;9.162;2022-12-29T15:47:38;1.60;;;0.63;;
35540;SDS011;21650;48.840;9.162;2022-12-29T15:50:26;1.83;;;0.90;;
35540;SDS011;21650;48.840;9.162;2022-12-29T15:52:54;2.27;;;0.63;;
35540;SDS011;21650;48.840;9.162;2022-12-29T15:57:55;0.63;;;0.60;;
35540;SDS011;21650;48.840;9.162;2022-12-29T16:02:56;0.83;;;0.60;;
35540;SDS011;21650;48.840;9.162;2022-12-29T16:05:30;1.33;;;0.67;;
35540;SDS011;21650;48.840;9.162;2022-12-29T16:08:00;4.10;;;0.60;;
35540;SDS011;21650;48.840;9.162;2022-12-29T16:10:27;2.27;;;1.00;;
35540;SDS011;21650;48.840;9.162;2022-12-29T16:13:00;2.10;;;1.53;;
35540;SDS011;21650;48.840;9.162;2022-12-29T16:15:27;1.80;;;0.77;;
35540;SDS011;21650;48.840;9.162;2022-12-29T16:17:54;2.40;;;1.27;;
35540;SDS011;21650;48.840;9.162;2022-12-29T16:20:41;2.37;;;1.00;;
35540;SDS011;21650;48.840;9.162;2022-12-29T16:23:10;1.37;;;0.80;;
35540;SDS011;21650;48.840;9.162;2022-12-29T16:25:43;1.63;;;1.03;;
35540;SDS011;21650;48.840;9.162;2022-12-29T16:28:19;2.50;;;0.97;;
35540;SDS011;21650;48.840;9.162;2022-12-29T16:30:46;2.37;;;0.80;;
35540;SDS011;21650;48.840;9.162;2022-12-29T16:36:23;5.97;;;2.20;;
35540;SDS011;21650;48.840;9.162;2022-12-29T16:38:49;0.93;;;0.80;;
35540;SDS011;21650;48.840;9.162;2022-12-29T16:41:30;3.80;;;0.80;;
35540;SDS011;21650;48.840;9.162;2022-12-29T16:44:12;17.73;;;8.40;;
35540;SDS011;21650;48.840;9.162;2022-12-29T16:46:56;13.50;;;7.47;;
35540;SDS011;21650;48.840;9.162;2022-12-29T16:49:35;9.70;;;5.17;;
35540;SDS011;21650;48.840;9.162;2022-12-29T16:52:13;12.13;;;6.53;;
35540;SDS011;21650;48.840;9.162;2022-12-29T16:54:44;1.83;;;0.80;;
35540;SDS011;21650;48.840;9.162;2022-12-29T16:57:22;2.63;;;0.90;;
35540;SDS011;21650;48.840;9.162;2022-12-29T16:59:49;2.57;;;1.03;;
35540;SDS011;21650;48.840;9.162;2022-12-29T17:02:19;1.73;;;1.13;;
35540;SDS011;21650;48.840;9.162;2022-12-29T17:04:47;6.40;;;1.50;;
35540;SDS011;21650;48.840;9.162;2022-12-29T17:07:15;4.73;;;1.37;;
35540;SDS011;21650;48.840;9.162;2022-12-29T17:09:42;2.40;;;1.10;;
35540;SDS011;21650;48.840;9.162;2022-12-29T17:12:08;2.90;;;1.27;;
35540;SDS011;21650;48.840;9.162;2022-12-29T17:22:44;3.00;;;1.20;;
35540;SDS011;21650;48.840;9.162;2022-12-29T17:25:14;2.27;;;1.40;;
35540;SDS011;21650;48.840;9.162;2022-12-29T17:30:14;2.27;;;1.30;;
35540;SDS011;21650;48.840;9.162;2022-12-29T17:32:43;3.03;;;1.23;;
35540;SDS011;21650;48.840;9.162;2022-12-29T17:35:14;1.67;;;1.13;;
35540;SDS011;21650;48.840;9.162;2022-12-29T17:37:40;3.33;;;1.47;;
35540;SDS011;21650;48.840;9.162;2022-12-29T17:40:07;1.80;;;1.10;;